This is the latest recevied weather packets stored in our database for station/object KC1TLF-15. If no packets are shown the sender has not sent any weather packets the latest 10 day(s).
| Time | Temp. | Humidity | Pressure | Rain* | Wind** | Luminosity | Snow |
|---|---|---|---|---|---|---|---|
| 1777912270 | 20.56° C | 33% | 1015.6 hPa | 0 mm | 0.89 m/s, 292° | 754 W/m² | - |
| 1777911670 | 20.56° C | 32% | 1015.7 hPa | 0 mm | 0.89 m/s, 343° | 756 W/m² | - |
| 1777911070 | 20° C | 35% | 1015.9 hPa | 0 mm | 2.68 m/s, 207° | 752 W/m² | - |
| 1777910471 | 20° C | 36% | 1016 hPa | 0 mm | 1.34 m/s, 221° | 749 W/m² | - |
| 1777909871 | 20° C | 36% | 1016.4 hPa | 0 mm | 0.45 m/s, 321° | 742 W/m² | - |
| 1777909270 | 19.44° C | 36% | 1016.7 hPa | 0 mm | 0.89 m/s, 308° | 735 W/m² | - |
| 1777908671 | 19.44° C | 35% | 1016.6 hPa | 0 mm | 0.89 m/s, 289° | 727 W/m² | - |
| 1777908071 | 18.89° C | 39% | 1016.6 hPa | 0 mm | 0 m/s | 722 W/m² | - |
| 1777907471 | 18.89° C | 36% | 1016.8 hPa | 0 mm | 0.45 m/s, 322° | 675 W/m² | - |
| 1777906870 | 18.89° C | 37% | 1016.7 hPa | 0 mm | 0.45 m/s, 282° | 699 W/m² | - |
| 1777906271 | 19.44° C | 36% | 1016.9 hPa | 0 mm | 1.79 m/s, 316° | 684 W/m² | - |
| 1777905670 | 18.89° C | 39% | 1017.1 hPa | 0 mm | 0.89 m/s, 291° | 667 W/m² | - |
| 1777905071 | 17.78° C | 38% | 1017.3 hPa | 0 mm | 0.89 m/s, 300° | 649 W/m² | - |
| 1777904470 | 17.78° C | 39% | 1017 hPa | 0 mm | 0 m/s | 628 W/m² | - |
| 1777903870 | 17.78° C | 40% | 1017.2 hPa | 0 mm | 0.45 m/s, 316° | 610 W/m² | - |
| 1777903270 | 18.33° C | 38% | 1017.3 hPa | 0 mm | 1.79 m/s, 286° | 590 W/m² | - |
| 1777902669 | 17.22° C | 41% | 1017.3 hPa | 0 mm | 0 m/s | 564 W/m² | - |
| 1777902071 | 16.67° C | 40% | 1017.7 hPa | 0 mm | 0.45 m/s, 314° | 539 W/m² | - |
| 1777901471 | 16.67° C | 40% | 1017.6 hPa | 0 mm | 0.45 m/s, 269° | 516 W/m² | - |
| 1777900870 | 16.11° C | 42% | 1018 hPa | 0 mm | 0.45 m/s, 298° | 490 W/m² | - |
| 1777900269 | 15.56° C | 43% | 1017.8 hPa | 0 mm | 0 m/s | 462 W/m² | - |
| 1777899670 | 15° C | 43% | 1018 hPa | 0 mm | 0.45 m/s, 312° | 438 W/m² | - |
| 1777899070 | 14.44° C | 47% | 1018.1 hPa | 0 mm | 0.89 m/s, 283° | 401 W/m² | - |
| 1777898470 | 14.44° C | 45% | 1018.2 hPa | 0 mm | 0.45 m/s, 298° | 371 W/m² | - |
| 1777897870 | 14.44° C | 45% | 1018.4 hPa | 0 mm | 0 m/s | 318 W/m² | - |
* Rain latest hour (hover to see other rain measurements)
** Current wind speed in m/s (hover to see current wind gust speed)